Time;durP1;ratioP1;P1;durP2;ratioP2;P2;SDS_P1;SDS_P2;PMS_P1;PMS_P2;Temp;Humidity;BMP_temperature;BMP_pressure;BME280_temperature;BME280_humidity;BME280_pressure;Samples;Min_cycle;Max_cycle;Signal;HPM_P1;HPM_P2
2021/05/24 00:00:08;;;;;;;6.57;3.17;;;;;;;;;;780703;179;919470;-69
2021/05/24 00:02:34;;;;;;;5.20;3.10;;;;;;;;;;777033;180;917667;-68
2021/05/24 00:05:00;;;;;;;87.20;12.90;;;;;;;;;;778750;180;625120;-69
2021/05/24 00:07:26;;;;;;;11.90;3.33;;;;;;;;;;785462;180;614741;-68
2021/05/24 00:09:51;;;;;;;3.37;2.27;;;;;;;;;;772914;178;913517;-69
2021/05/24 00:12:25;;;;;;;3.13;2.40;;;;;;;;;;773597;178;914809;-69
2021/05/24 00:14:47;;;;;;;3.60;2.53;;;;;;;;;;777192;177;920649;-69
2021/05/24 00:17:09;;;;;;;132.83;14.00;;;;;;;;;;773397;178;919438;-69
2021/05/24 00:19:35;;;;;;;88.72;7.68;;;;;;;;;;774224;179;861986;-69
2021/05/24 00:22:01;;;;;;;9.93;2.73;;;;;;;;;;775222;180;919234;-68
2021/05/24 00:24:26;;;;;;;3.20;2.53;;;;;;;;;;775172;180;915444;-69
2021/05/24 00:26:52;;;;;;;5.13;2.67;;;;;;;;;;772873;178;919402;-69
2021/05/24 00:29:20;;;;;;;3.73;2.47;;;;;;;;;;762266;180;919229;-69
2021/05/24 00:31:45;;;;;;;10.90;3.50;;;;;;;;;;777793;180;918117;-71
2021/05/24 00:34:14;;;;;;;40.83;4.13;;;;;;;;;;772516;179;917356;-69
2021/05/24 00:36:39;;;;;;;10.10;3.10;;;;;;;;;;772851;178;923148;-69
2021/05/24 00:39:07;;;;;;;12.17;2.90;;;;;;;;;;774993;180;922630;-69
2021/05/24 00:41:33;;;;;;;72.10;10.13;;;;;;;;;;772780;179;919394;-69
2021/05/24 00:43:59;;;;;;;3.50;2.63;;;;;;;;;;769381;180;919043;-69
2021/05/24 00:46:25;;;;;;;4.45;2.62;;;;;;;;;;772478;181;919694;-69
2021/05/24 00:48:51;;;;;;;4.40;3.50;;;;;;;;;;778271;180;927221;-69
2021/05/24 00:51:17;;;;;;;2.97;2.10;;;;;;;;;;772402;180;919789;-69
2021/05/24 00:53:43;;;;;;;4.93;2.37;;;;;;;;;;771260;180;918940;-69
2021/05/24 00:56:08;;;;;;;68.22;7.57;;;;;;;;;;779359;180;918969;-69
2021/05/24 00:58:34;;;;;;;3.30;2.27;;;;;;;;;;772705;180;919106;-69
2021/05/24 01:01:01;;;;;;;37.90;5.67;;;;;;;;;;774940;177;920141;-71
2021/05/24 01:03:27;;;;;;;40.37;5.33;;;;;;;;;;782134;180;642910;-69
2021/05/24 01:05:52;;;;;;;8.17;2.70;;;;;;;;;;770115;179;921800;-69
2021/05/24 01:08:18;;;;;;;3.00;2.00;;;;;;;;;;775620;178;920383;-69
2021/05/24 01:10:44;;;;;;;6.30;2.23;;;;;;;;;;780745;179;912094;-68
2021/05/24 01:13:12;;;;;;;13.90;3.40;;;;;;;;;;780114;179;918468;-69
2021/05/24 01:15:36;;;;;;;65.95;7.18;;;;;;;;;;773827;180;917247;-69
2021/05/24 01:18:02;;;;;;;26.03;5.33;;;;;;;;;;773785;180;1021770;-69
2021/05/24 01:20:28;;;;;;;18.50;3.33;;;;;;;;;;779127;180;919227;-69
2021/05/24 01:23:06;;;;;;;13.68;3.78;;;;;;;;;;773989;178;913868;-69
2021/05/24 01:25:21;;;;;;;16.67;4.17;;;;;;;;;;771068;180;913631;-69
2021/05/24 01:27:47;;;;;;;27.87;4.37;;;;;;;;;;783533;178;626056;-69
2021/05/24 01:30:13;;;;;;;19.97;3.40;;;;;;;;;;777835;178;622659;-69
2021/05/24 01:32:39;;;;;;;9.57;2.93;;;;;;;;;;778711;177;626405;-69
2021/05/24 01:35:05;;;;;;;8.30;2.90;;;;;;;;;;774772;178;1021058;-68
2021/05/24 01:37:31;;;;;;;7.67;2.80;;;;;;;;;;769644;181;914093;-69
2021/05/24 01:39:57;;;;;;;12.73;4.37;;;;;;;;;;778358;178;918790;-69
2021/05/24 01:42:23;;;;;;;6.27;3.60;;;;;;;;;;774208;177;919644;-69
2021/05/24 01:44:49;;;;;;;11.60;3.60;;;;;;;;;;779278;179;918814;-69
2021/05/24 01:47:15;;;;;;;3.83;2.97;;;;;;;;;;766464;181;919096;-68
2021/05/24 01:49:46;;;;;;;4.37;2.43;;;;;;;;;;762176;181;919042;-68
2021/05/24 01:52:06;;;;;;;4.27;3.07;;;;;;;;;;775583;180;917892;-68
2021/05/24 01:54:32;;;;;;;5.47;3.43;;;;;;;;;;775721;179;919795;-69
2021/05/24 01:56:58;;;;;;;5.57;3.77;;;;;;;;;;779028;180;624569;-68
2021/05/24 01:59:24;;;;;;;7.93;2.85;;;;;;;;;;776519;179;621174;-69
2021/05/24 02:01:50;;;;;;;14.03;5.40;;;;;;;;;;768397;180;621945;-70
2021/05/24 02:04:16;;;;;;;11.88;3.25;;;;;;;;;;770303;180;1209348;-68
2021/05/24 02:06:42;;;;;;;19.10;3.80;;;;;;;;;;769673;179;627848;-69
2021/05/24 02:09:08;;;;;;;5.30;3.23;;;;;;;;;;782611;180;612301;-69
2021/05/24 02:11:33;;;;;;;4.87;2.90;;;;;;;;;;775594;180;918823;-69
2021/05/24 02:13:59;;;;;;;8.00;3.90;;;;;;;;;;771830;180;918718;-69
2021/05/24 02:16:42;;;;;;;3.93;2.83;;;;;;;;;;778765;181;918046;-68
2021/05/24 02:19:08;;;;;;;5.43;4.07;;;;;;;;;;776214;180;919597;-69
2021/05/24 02:21:34;;;;;;;10.43;4.43;;;;;;;;;;771189;179;905576;-70
2021/05/24 02:23:59;;;;;;;7.30;2.75;;;;;;;;;;771943;180;918961;-70
2021/05/24 02:26:25;;;;;;;6.60;3.10;;;;;;;;;;779625;180;918218;-71
2021/05/24 02:28:51;;;;;;;19.53;3.80;;;;;;;;;;773963;181;919407;-71
2021/05/24 02:31:17;;;;;;;23.30;4.87;;;;;;;;;;772602;179;919379;-71
2021/05/24 02:33:43;;;;;;;6.87;3.40;;;;;;;;;;776473;178;883517;-71
2021/05/24 02:36:09;;;;;;;6.17;3.73;;;;;;;;;;774382;180;917353;-71
2021/05/24 02:38:34;;;;;;;9.53;3.50;;;;;;;;;;768522;179;918991;-72
2021/05/24 02:41:00;;;;;;;20.73;3.43;;;;;;;;;;773434;178;920719;-71
2021/05/24 02:43:26;;;;;;;12.20;3.90;;;;;;;;;;777342;179;918901;-71
2021/05/24 02:45:52;;;;;;;6.60;3.63;;;;;;;;;;772628;180;918880;-72
2021/05/24 02:48:18;;;;;;;11.07;3.80;;;;;;;;;;771749;180;918508;-72
2021/05/24 02:50:44;;;;;;;10.30;2.70;;;;;;;;;;778170;180;916070;-71
2021/05/24 02:53:10;;;;;;;14.53;3.80;;;;;;;;;;774691;180;918434;-72
2021/05/24 02:55:36;;;;;;;8.23;3.60;;;;;;;;;;773983;181;920431;-73
2021/05/24 02:58:01;;;;;;;19.23;4.17;;;;;;;;;;777600;180;1022892;-73
2021/05/24 03:00:27;;;;;;;19.20;4.33;;;;;;;;;;775092;180;1019325;-72
2021/05/24 03:02:53;;;;;;;14.83;3.83;;;;;;;;;;767552;178;1738458;-71
2021/05/24 03:05:19;;;;;;;6.73;4.30;;;;;;;;;;776482;178;912818;-72
2021/05/24 03:07:45;;;;;;;8.53;3.27;;;;;;;;;;779043;180;632519;-71
2021/05/24 03:10:11;;;;;;;13.60;3.80;;;;;;;;;;777249;179;631561;-72
2021/05/24 03:12:37;;;;;;;7.13;3.30;;;;;;;;;;777055;180;813350;-71
2021/05/24 03:15:02;;;;;;;12.35;3.65;;;;;;;;;;778047;181;919667;-71
2021/05/24 03:17:28;;;;;;;10.80;3.60;;;;;;;;;;774849;180;1021225;-71
2021/05/24 03:19:54;;;;;;;5.20;3.60;;;;;;;;;;769137;180;919088;-71
2021/05/24 03:22:20;;;;;;;4.40;3.20;;;;;;;;;;775977;180;919452;-73
2021/05/24 03:24:46;;;;;;;8.40;4.20;;;;;;;;;;771749;178;919245;-72
2021/05/24 03:27:12;;;;;;;32.20;6.10;;;;;;;;;;773406;177;945092;-72
2021/05/24 03:29:38;;;;;;;17.30;4.87;;;;;;;;;;776172;178;650362;-72
2021/05/24 03:32:03;;;;;;;4.87;3.63;;;;;;;;;;777018;179;646767;-72
2021/05/24 03:34:29;;;;;;;4.70;3.17;;;;;;;;;;781220;180;625416;-72
2021/05/24 03:36:55;;;;;;;6.83;4.00;;;;;;;;;;777871;180;628264;-72
2021/05/24 03:39:21;;;;;;;5.00;3.50;;;;;;;;;;775677;180;918949;-70
2021/05/24 03:41:47;;;;;;;5.10;3.30;;;;;;;;;;774803;177;918711;-70
2021/05/24 03:44:13;;;;;;;5.00;3.77;;;;;;;;;;773628;179;919339;-69
2021/05/24 03:46:39;;;;;;;7.20;4.00;;;;;;;;;;780304;180;919441;-69
2021/05/24 03:49:04;;;;;;;7.47;4.90;;;;;;;;;;773534;180;918008;-69
2021/05/24 03:51:31;;;;;;;6.60;4.40;;;;;;;;;;772138;180;918968;-71
2021/05/24 03:53:56;;;;;;;7.80;4.60;;;;;;;;;;780605;180;917702;-70
2021/05/24 03:56:22;;;;;;;11.10;5.10;;;;;;;;;;774033;177;1189118;-70
2021/05/24 03:58:48;;;;;;;8.80;5.57;;;;;;;;;;774221;180;859595;-70
2021/05/24 04:01:14;;;;;;;7.30;4.73;;;;;;;;;;771317;180;920595;-69
2021/05/24 04:03:41;;;;;;;7.97;5.13;;;;;;;;;;776800;180;923044;-69
2021/05/24 04:06:09;;;;;;;10.47;7.20;;;;;;;;;;773946;180;918994;-70
2021/05/24 04:08:37;;;;;;;10.57;7.47;;;;;;;;;;772464;180;920043;-69
2021/05/24 04:10:59;;;;;;;14.43;9.63;;;;;;;;;;778630;180;617451;-69
2021/05/24 04:13:25;;;;;;;11.60;9.53;;;;;;;;;;774289;181;634035;-69
2021/05/24 04:15:53;;;;;;;20.77;12.53;;;;;;;;;;776832;179;622896;-69
2021/05/24 04:18:18;;;;;;;16.53;11.07;;;;;;;;;;779916;177;620351;-69
2021/05/24 04:20:43;;;;;;;18.47;11.10;;;;;;;;;;778597;180;627942;-70
2021/05/24 04:23:08;;;;;;;19.27;11.23;;;;;;;;;;778985;178;633658;-70
2021/05/24 04:25:34;;;;;;;18.67;11.73;;;;;;;;;;775481;180;883429;-69
2021/05/24 04:28:00;;;;;;;21.43;13.40;;;;;;;;;;761816;180;917745;-69
2021/05/24 04:30:26;;;;;;;20.33;11.77;;;;;;;;;;772113;180;883355;-69
2021/05/24 04:32:51;;;;;;;19.40;12.07;;;;;;;;;;772827;179;1050492;-71
2021/05/24 04:35:18;;;;;;;14.83;11.00;;;;;;;;;;779223;181;903756;-68
2021/05/24 04:37:43;;;;;;;20.27;13.00;;;;;;;;;;775255;180;918821;-69
2021/05/24 04:40:09;;;;;;;25.93;14.50;;;;;;;;;;773329;180;928324;-69
2021/05/24 04:42:35;;;;;;;19.23;13.60;;;;;;;;;;776962;180;917196;-69
2021/05/24 04:45:01;;;;;;;17.57;11.27;;;;;;;;;;774448;179;922036;-70
2021/05/24 04:47:27;;;;;;;18.73;10.97;;;;;;;;;;767977;180;921637;-69
2021/05/24 04:49:53;;;;;;;13.30;9.77;;;;;;;;;;775923;180;892187;-68
2021/05/24 04:52:19;;;;;;;30.80;14.00;;;;;;;;;;774639;180;920375;-69
2021/05/24 04:54:44;;;;;;;20.43;11.07;;;;;;;;;;774640;177;923907;-70
2021/05/24 04:57:10;;;;;;;20.10;10.23;;;;;;;;;;773872;179;918626;-69
2021/05/24 04:59:36;;;;;;;23.73;12.70;;;;;;;;;;778334;180;921156;-70
2021/05/24 05:02:02;;;;;;;22.00;13.93;;;;;;;;;;773299;180;920713;-70
2021/05/24 05:04:28;;;;;;;18.27;13.20;;;;;;;;;;774468;177;941567;-70
2021/05/24 05:06:56;;;;;;;26.77;16.20;;;;;;;;;;777753;180;915701;-71
2021/05/24 05:09:20;;;;;;;23.83;15.43;;;;;;;;;;772510;179;1196852;-70
2021/05/24 05:11:45;;;;;;;25.20;13.90;;;;;;;;;;769374;181;920087;-70
2021/05/24 05:14:11;;;;;;;23.00;14.53;;;;;;;;;;778908;180;918445;-70
2021/05/24 05:16:37;;;;;;;22.15;14.80;;;;;;;;;;773488;180;919442;-70
2021/05/24 05:19:03;;;;;;;19.67;13.60;;;;;;;;;;773548;180;918887;-70
2021/05/24 05:21:29;;;;;;;21.40;14.50;;;;;;;;;;773069;180;1029428;-70
2021/05/24 05:23:55;;;;;;;18.85;13.65;;;;;;;;;;782238;177;920234;-70
2021/05/24 05:26:21;;;;;;;30.17;16.40;;;;;;;;;;775034;177;918226;-71
2021/05/24 05:28:46;;;;;;;22.73;13.00;;;;;;;;;;772418;177;1022179;-71
2021/05/24 05:31:12;;;;;;;19.30;12.20;;;;;;;;;;775949;180;928089;-72
2021/05/24 05:33:39;;;;;;;22.27;12.83;;;;;;;;;;769655;180;916094;-72
2021/05/24 05:36:05;;;;;;;12.83;10.20;;;;;;;;;;775606;179;628804;-71
2021/05/24 05:38:32;;;;;;;16.87;12.40;;;;;;;;;;779449;177;778447;-71
2021/05/24 05:40:57;;;;;;;14.83;10.20;;;;;;;;;;775486;180;641513;-72
2021/05/24 05:43:22;;;;;;;12.53;9.57;;;;;;;;;;777954;177;619162;-72
2021/05/24 05:45:48;;;;;;;13.70;10.70;;;;;;;;;;776902;177;1102498;-70
2021/05/24 05:48:14;;;;;;;14.83;9.60;;;;;;;;;;773327;180;625882;-70
2021/05/24 05:50:40;;;;;;;17.73;10.30;;;;;;;;;;777615;180;637939;-70
2021/05/24 05:53:06;;;;;;;16.20;10.50;;;;;;;;;;777264;180;629580;-71
2021/05/24 05:55:32;;;;;;;14.47;10.47;;;;;;;;;;781425;178;630245;-70
2021/05/24 05:57:57;;;;;;;12.93;9.97;;;;;;;;;;779208;176;619557;-70
2021/05/24 06:00:24;;;;;;;13.93;9.77;;;;;;;;;;767762;180;620939;-70
2021/05/24 06:02:50;;;;;;;12.43;9.80;;;;;;;;;;781612;180;690170;-70
2021/05/24 06:05:15;;;;;;;10.40;7.47;;;;;;;;;;775109;180;626269;-70
2021/05/24 06:07:42;;;;;;;11.27;8.33;;;;;;;;;;772144;180;616767;-69
2021/05/24 06:10:09;;;;;;;9.57;7.50;;;;;;;;;;779573;180;633460;-70
2021/05/24 06:12:34;;;;;;;8.50;7.00;;;;;;;;;;778608;178;634352;-70
2021/05/24 06:15:00;;;;;;;9.20;7.80;;;;;;;;;;776250;180;915592;-69
2021/05/24 06:17:26;;;;;;;10.40;7.93;;;;;;;;;;777534;179;626986;-70
2021/05/24 06:19:52;;;;;;;10.60;7.07;;;;;;;;;;782366;180;623787;-69
2021/05/24 06:22:18;;;;;;;10.83;6.90;;;;;;;;;;777300;178;637414;-69
2021/05/24 06:24:44;;;;;;;9.43;6.30;;;;;;;;;;781140;177;625628;-70
2021/05/24 06:27:09;;;;;;;7.03;6.03;;;;;;;;;;782605;180;639557;-70
2021/05/24 06:29:35;;;;;;;10.20;6.83;;;;;;;;;;777422;180;620701;-70
2021/05/24 06:32:01;;;;;;;8.90;6.53;;;;;;;;;;778092;178;630808;-70
2021/05/24 06:34:27;;;;;;;8.43;6.17;;;;;;;;;;781740;179;613092;-70
2021/05/24 06:36:53;;;;;;;9.40;5.80;;;;;;;;;;778950;179;634860;-71
2021/05/24 06:39:20;;;;;;;7.27;6.57;;;;;;;;;;780116;180;622562;-71
2021/05/24 06:41:45;;;;;;;7.10;5.40;;;;;;;;;;773198;180;633671;-70
2021/05/24 06:44:13;;;;;;;7.10;5.43;;;;;;;;;;780549;181;659704;-70
2021/05/24 06:46:39;;;;;;;6.03;5.20;;;;;;;;;;777770;180;642094;-71
2021/05/24 06:49:05;;;;;;;6.87;5.20;;;;;;;;;;778216;178;619936;-70
2021/05/24 06:51:31;;;;;;;9.77;5.60;;;;;;;;;;780443;178;627563;-70
2021/05/24 06:53:56;;;;;;;6.20;4.93;;;;;;;;;;779702;178;627347;-71
2021/05/24 06:56:22;;;;;;;5.97;4.77;;;;;;;;;;775154;178;919003;-71
2021/05/24 06:58:48;;;;;;;8.00;4.73;;;;;;;;;;774707;180;919573;-70
2021/05/24 07:01:14;;;;;;;5.33;4.60;;;;;;;;;;769654;180;919110;-71
2021/05/24 07:03:40;;;;;;;9.37;4.70;;;;;;;;;;769909;181;919138;-70
2021/05/24 07:06:06;;;;;;;5.00;3.93;;;;;;;;;;771262;180;926773;-70
2021/05/24 07:08:32;;;;;;;5.40;4.20;;;;;;;;;;777427;180;921823;-70
2021/05/24 07:10:57;;;;;;;4.67;3.90;;;;;;;;;;776270;180;919208;-71
2021/05/24 07:13:23;;;;;;;7.23;3.40;;;;;;;;;;773249;178;919481;-71
2021/05/24 07:15:49;;;;;;;4.00;3.43;;;;;;;;;;779278;180;919341;-71
2021/05/24 07:18:15;;;;;;;4.70;3.53;;;;;;;;;;777190;177;918730;-70
2021/05/24 07:20:41;;;;;;;7.07;3.43;;;;;;;;;;771966;179;919519;-70
2021/05/24 07:23:07;;;;;;;2.60;2.23;;;;;;;;;;779618;180;898324;-71
2021/05/24 07:25:32;;;;;;;4.75;2.50;;;;;;;;;;772264;178;919902;-70
2021/05/24 07:27:59;;;;;;;5.53;1.90;;;;;;;;;;774098;180;918826;-71
2021/05/24 07:30:25;;;;;;;3.10;2.05;;;;;;;;;;772561;178;1254812;-71
2021/05/24 07:32:51;;;;;;;4.83;2.20;;;;;;;;;;774777;180;916126;-71
2021/05/24 07:35:16;;;;;;;6.68;2.33;;;;;;;;;;774554;178;923529;-71
2021/05/24 07:37:42;;;;;;;2.60;2.00;;;;;;;;;;772032;180;915714;-71
2021/05/24 07:40:09;;;;;;;4.60;1.93;;;;;;;;;;775547;180;914598;-72
2021/05/24 07:42:35;;;;;;;6.10;2.00;;;;;;;;;;773088;180;646718;-72
2021/05/24 07:45:01;;;;;;;6.57;2.07;;;;;;;;;;775229;180;888134;-72
2021/05/24 07:47:27;;;;;;;3.50;1.60;;;;;;;;;;780269;180;623206;-73
2021/05/24 07:49:52;;;;;;;3.67;2.07;;;;;;;;;;778021;180;640490;-72
2021/05/24 07:52:18;;;;;;;2.47;1.73;;;;;;;;;;778229;180;919773;-73
2021/05/24 07:54:45;;;;;;;3.20;1.65;;;;;;;;;;778949;180;924599;-72
2021/05/24 07:57:11;;;;;;;4.63;2.00;;;;;;;;;;764361;181;920007;-72
2021/05/24 07:59:36;;;;;;;2.37;1.77;;;;;;;;;;755505;181;917910;-72
2021/05/24 08:02:03;;;;;;;6.35;1.70;;;;;;;;;;772787;180;916311;-72
2021/05/24 08:04:28;;;;;;;8.40;1.80;;;;;;;;;;780320;177;914667;-74
2021/05/24 08:06:54;;;;;;;4.40;2.20;;;;;;;;;;768621;178;1566700;-72
2021/05/24 08:09:20;;;;;;;2.13;1.50;;;;;;;;;;779854;177;637841;-73
2021/05/24 08:11:46;;;;;;;5.20;2.00;;;;;;;;;;775508;180;919521;-72
2021/05/24 08:14:14;;;;;;;3.80;2.70;;;;;;;;;;773150;180;1023164;-73
2021/05/24 08:16:37;;;;;;;2.83;1.50;;;;;;;;;;772097;180;919841;-73
2021/05/24 08:19:03;;;;;;;2.20;1.43;;;;;;;;;;780124;179;916921;-74
2021/05/24 08:21:29;;;;;;;5.60;1.53;;;;;;;;;;775945;180;937203;-72
2021/05/24 08:23:55;;;;;;;2.50;1.23;;;;;;;;;;775362;180;919367;-72
2021/05/24 08:26:21;;;;;;;2.03;1.17;;;;;;;;;;774573;180;915772;-72
2021/05/24 08:28:46;;;;;;;3.60;1.50;;;;;;;;;;779261;180;915844;-71
2021/05/24 08:31:12;;;;;;;2.80;1.50;;;;;;;;;;773009;178;992400;-72
2021/05/24 08:33:38;;;;;;;4.50;1.30;;;;;;;;;;777023;177;921379;-73
2021/05/24 08:36:04;;;;;;;4.10;2.23;;;;;;;;;;778950;180;616070;-73
2021/05/24 08:38:31;;;;;;;3.20;1.40;;;;;;;;;;779931;180;636408;-73
2021/05/24 08:40:57;;;;;;;2.12;1.10;;;;;;;;;;770894;180;919433;-72
2021/05/24 08:43:22;;;;;;;2.67;1.73;;;;;;;;;;771835;180;1638166;-74
2021/05/24 08:45:48;;;;;;;5.23;1.73;;;;;;;;;;774021;180;919011;-73
2021/05/24 08:48:14;;;;;;;3.40;1.70;;;;;;;;;;774096;180;918402;-73
2021/05/24 08:50:39;;;;;;;2.10;1.37;;;;;;;;;;771101;177;919385;-71
2021/05/24 08:53:05;;;;;;;2.40;1.53;;;;;;;;;;770055;180;918906;-74
2021/05/24 08:55:31;;;;;;;2.50;1.27;;;;;;;;;;770594;177;920116;-73
2021/05/24 08:57:57;;;;;;;1.77;1.10;;;;;;;;;;776110;178;918440;-72
2021/05/24 09:00:23;;;;;;;3.77;1.27;;;;;;;;;;778532;180;926678;-72
2021/05/24 09:02:49;;;;;;;2.30;1.27;;;;;;;;;;774264;179;923766;-71
2021/05/24 09:05:15;;;;;;;5.60;1.40;;;;;;;;;;770357;180;919312;-71
2021/05/24 09:07:53;;;;;;;3.33;1.33;;;;;;;;;;778860;180;918480;-72
2021/05/24 09:10:20;;;;;;;5.60;1.30;;;;;;;;;;771876;180;920472;-72
2021/05/24 09:12:46;;;;;;;3.40;2.60;;;;;;;;;;763722;179;876110;-72
2021/05/24 09:15:14;;;;;;;3.13;1.30;;;;;;;;;;776313;177;628505;-73
2021/05/24 09:17:44;;;;;;;4.97;1.67;;;;;;;;;;780554;180;919531;-71
2021/05/24 09:20:15;;;;;;;2.20;1.13;;;;;;;;;;769031;180;1103055;-72
2021/05/24 09:22:40;;;;;;;4.77;1.63;;;;;;;;;;767931;180;919214;-73
2021/05/24 09:25:07;;;;;;;9.83;2.10;;;;;;;;;;773937;179;918833;-72
2021/05/24 09:27:37;;;;;;;5.20;1.53;;;;;;;;;;777935;180;919548;-73
2021/05/24 09:30:01;;;;;;;3.13;1.70;;;;;;;;;;774436;180;933018;-71
2021/05/24 09:32:26;;;;;;;2.80;1.17;;;;;;;;;;773298;179;920458;-73
2021/05/24 09:34:52;;;;;;;2.83;1.10;;;;;;;;;;773627;180;919173;-71
2021/05/24 09:37:18;;;;;;;3.07;1.43;;;;;;;;;;776580;180;919053;-72
2021/05/24 09:39:44;;;;;;;2.27;1.43;;;;;;;;;;760512;180;981617;-71
2021/05/24 09:42:10;;;;;;;6.87;2.63;;;;;;;;;;774524;178;919355;-72
2021/05/24 09:44:42;;;;;;;4.60;1.50;;;;;;;;;;779445;180;918207;-73
2021/05/24 09:47:08;;;;;;;2.30;1.37;;;;;;;;;;774672;179;919357;-73
2021/05/24 09:49:33;;;;;;;2.33;1.30;;;;;;;;;;777634;177;920764;-73
2021/05/24 09:51:59;;;;;;;3.63;1.37;;;;;;;;;;775084;180;918481;-72
2021/05/24 09:54:29;;;;;;;3.47;1.20;;;;;;;;;;767034;181;919837;-72
2021/05/24 09:56:55;;;;;;;3.73;1.50;;;;;;;;;;775164;177;919642;-71
2021/05/24 09:59:22;;;;;;;3.27;1.33;;;;;;;;;;766806;178;919190;-70
2021/05/24 10:01:49;;;;;;;2.07;1.20;;;;;;;;;;776470;180;918683;-72
2021/05/24 10:04:14;;;;;;;5.33;1.40;;;;;;;;;;775606;178;635461;-72
2021/05/24 10:06:40;;;;;;;3.13;1.00;;;;;;;;;;774297;179;624480;-71
2021/05/24 10:09:06;;;;;;;2.83;1.40;;;;;;;;;;774295;180;625400;-71
2021/05/24 10:11:32;;;;;;;2.67;1.30;;;;;;;;;;777622;177;671207;-71
2021/05/24 10:13:57;;;;;;;4.50;1.50;;;;;;;;;;776352;180;817266;-71
2021/05/24 10:16:24;;;;;;;2.30;1.43;;;;;;;;;;774119;180;918744;-70
2021/05/24 10:18:49;;;;;;;3.30;1.50;;;;;;;;;;778728;180;924768;-70
2021/05/24 10:21:15;;;;;;;5.67;3.40;;;;;;;;;;773538;180;919058;-71
2021/05/24 10:23:41;;;;;;;2.13;1.33;;;;;;;;;;776751;179;918144;-71
2021/05/24 10:26:07;;;;;;;3.50;1.30;;;;;;;;;;776304;180;918797;-72
2021/05/24 10:28:33;;;;;;;2.33;1.40;;;;;;;;;;770222;180;1021191;-72
2021/05/24 10:30:58;;;;;;;3.90;1.45;;;;;;;;;;772418;180;919744;-71
2021/05/24 10:33:27;;;;;;;3.93;1.80;;;;;;;;;;779550;180;919289;-74
2021/05/24 10:35:52;;;;;;;4.97;1.60;;;;;;;;;;778074;179;816474;-71
2021/05/24 10:38:20;;;;;;;5.30;1.43;;;;;;;;;;769925;180;924070;-71
2021/05/24 10:40:45;;;;;;;3.37;1.57;;;;;;;;;;775874;180;633497;-72
2021/05/24 10:43:15;;;;;;;3.08;1.50;;;;;;;;;;779398;180;919061;-73
2021/05/24 10:45:37;;;;;;;4.60;1.70;;;;;;;;;;773950;176;919302;-72
2021/05/24 10:48:03;;;;;;;2.50;1.33;;;;;;;;;;776489;179;692421;-72
2021/05/24 10:50:30;;;;;;;6.70;1.67;;;;;;;;;;778733;179;919545;-72
2021/05/24 10:52:59;;;;;;;2.37;1.27;;;;;;;;;;774082;178;919568;-72
2021/05/24 10:55:35;;;;;;;3.30;1.40;;;;;;;;;;774751;180;919948;-73
2021/05/24 10:58:02;;;;;;;3.90;1.20;;;;;;;;;;776989;178;919009;-72
2021/05/24 11:00:27;;;;;;;4.77;1.90;;;;;;;;;;778437;180;919502;-71
2021/05/24 11:02:54;;;;;;;7.23;1.30;;;;;;;;;;772212;180;919152;-72
2021/05/24 11:05:26;;;;;;;4.17;1.40;;;;;;;;;;774094;181;918889;-74
2021/05/24 11:07:51;;;;;;;2.47;1.53;;;;;;;;;;773205;180;922281;-73
2021/05/24 11:10:20;;;;;;;6.40;1.80;;;;;;;;;;780060;180;915901;-72
2021/05/24 11:12:46;;;;;;;3.87;1.23;;;;;;;;;;769998;180;917771;-71
2021/05/24 11:15:13;;;;;;;3.30;1.83;;;;;;;;;;770883;180;920027;-73
2021/05/24 11:17:45;;;;;;;2.73;1.53;;;;;;;;;;775383;177;919617;-71
2021/05/24 11:20:32;;;;;;;4.10;1.57;;;;;;;;;;768217;180;920572;-73
2021/05/24 11:23:05;;;;;;;3.10;1.33;;;;;;;;;;778425;180;917746;-73
2021/05/24 11:28:07;;;;;;;5.30;1.43;;;;;;;;;;771633;178;919201;-71
2021/05/24 11:30:33;;;;;;;4.40;1.47;;;;;;;;;;774808;177;919157;-72
2021/05/24 11:32:59;;;;;;;2.93;1.43;;;;;;;;;;778655;180;918931;-72
2021/05/24 11:35:26;;;;;;;1.97;1.33;;;;;;;;;;774609;180;918834;-72
2021/05/24 11:37:51;;;;;;;5.73;1.40;;;;;;;;;;768683;180;920876;-71
2021/05/24 11:40:17;;;;;;;2.00;1.27;;;;;;;;;;767229;177;2145749;-71
2021/05/24 11:42:42;;;;;;;2.30;1.20;;;;;;;;;;778289;180;930366;-72
2021/05/24 11:45:08;;;;;;;6.20;1.30;;;;;;;;;;774011;179;919469;-72
2021/05/24 11:47:34;;;;;;;3.08;1.10;;;;;;;;;;768659;180;919088;-71
2021/05/24 11:50:00;;;;;;;2.27;1.40;;;;;;;;;;778074;178;919399;-72
2021/05/24 11:52:26;;;;;;;2.47;1.33;;;;;;;;;;774350;178;919108;-73
2021/05/24 11:54:52;;;;;;;4.37;1.23;;;;;;;;;;774251;175;943572;-73
2021/05/24 11:57:27;;;;;;;2.67;1.33;;;;;;;;;;781702;180;918685;-73
2021/05/24 11:59:53;;;;;;;3.03;1.20;;;;;;;;;;779097;178;1021691;-73
2021/05/24 12:02:22;;;;;;;3.30;1.83;;;;;;;;;;776097;179;919308;-73
2021/05/24 12:04:46;;;;;;;2.60;1.40;;;;;;;;;;779556;177;628912;-73
2021/05/24 12:07:13;;;;;;;5.43;1.90;;;;;;;;;;783272;180;632473;-73
2021/05/24 12:09:43;;;;;;;2.10;1.10;;;;;;;;;;777439;178;630272;-73
2021/05/24 12:12:10;;;;;;;3.20;1.20;;;;;;;;;;776913;180;622905;-74
2021/05/24 12:14:36;;;;;;;3.20;1.30;;;;;;;;;;782655;177;641711;-70
2021/05/24 12:17:06;;;;;;;2.60;1.23;;;;;;;;;;782024;178;624675;-73
2021/05/24 12:19:33;;;;;;;2.87;1.10;;;;;;;;;;774723;180;918491;-70
2021/05/24 12:22:02;;;;;;;4.27;1.30;;;;;;;;;;774396;180;919600;-72
2021/05/24 12:24:24;;;;;;;1.80;1.00;;;;;;;;;;776340;178;920360;-72
2021/05/24 12:26:50;;;;;;;5.63;2.00;;;;;;;;;;775134;180;916664;-70
2021/05/24 12:29:17;;;;;;;3.83;1.35;;;;;;;;;;769229;180;964238;-71
2021/05/24 12:31:44;;;;;;;2.37;1.23;;;;;;;;;;762459;180;918547;-72
2021/05/24 12:34:09;;;;;;;3.67;1.70;;;;;;;;;;777385;180;919346;-70
2021/05/24 12:39:07;;;;;;;1.80;1.00;;;;;;;;;;770779;178;923403;-71
2021/05/24 12:41:33;;;;;;;7.00;1.77;;;;;;;;;;773728;180;918941;-72
2021/05/24 12:43:59;;;;;;;3.03;1.43;;;;;;;;;;768422;180;919525;-73
2021/05/24 12:46:24;;;;;;;6.90;3.27;;;;;;;;;;775759;178;918963;-70
2021/05/24 12:48:52;;;;;;;5.13;1.70;;;;;;;;;;771854;178;919167;-70
2021/05/24 12:51:19;;;;;;;3.47;1.20;;;;;;;;;;779017;179;885806;-72
2021/05/24 12:53:50;;;;;;;2.40;1.10;;;;;;;;;;775645;177;915992;-71
2021/05/24 12:56:16;;;;;;;2.33;1.07;;;;;;;;;;774542;177;1257234;-70
2021/05/24 12:58:42;;;;;;;2.53;1.07;;;;;;;;;;768503;179;916165;-70
2021/05/24 13:01:08;;;;;;;2.00;1.10;;;;;;;;;;761541;180;914872;-71
2021/05/24 13:03:42;;;;;;;2.27;1.37;;;;;;;;;;772081;180;915654;-71
2021/05/24 13:06:08;;;;;;;6.45;1.30;;;;;;;;;;773623;179;919549;-71
2021/05/24 13:08:34;;;;;;;2.23;1.00;;;;;;;;;;777697;179;919087;-72
2021/05/24 13:11:01;;;;;;;3.77;1.63;;;;;;;;;;775328;180;941897;-72
2021/05/24 13:13:26;;;;;;;2.23;1.03;;;;;;;;;;776211;177;1022049;-73
2021/05/24 13:15:58;;;;;;;2.00;1.10;;;;;;;;;;774831;180;918601;-73
2021/05/24 13:18:38;;;;;;;1.73;1.10;;;;;;;;;;778075;180;920636;-70
2021/05/24 13:21:13;;;;;;;3.20;1.33;;;;;;;;;;774933;177;920765;-72
2021/05/24 13:23:52;;;;;;;2.00;1.27;;;;;;;;;;772030;180;917121;-71
2021/05/24 13:28:58;;;;;;;3.50;1.40;;;;;;;;;;763531;180;916868;-72
2021/05/24 13:31:41;;;;;;;2.30;1.40;;;;;;;;;;768696;180;1305594;-71
2021/05/24 13:34:05;;;;;;;2.83;1.33;;;;;;;;;;774064;179;915306;-71
2021/05/24 13:36:31;;;;;;;2.53;1.37;;;;;;;;;;778134;180;919741;-70
2021/05/24 13:38:57;;;;;;;3.50;2.00;;;;;;;;;;773318;180;982890;-70
2021/05/24 13:41:23;;;;;;;2.80;1.27;;;;;;;;;;774710;178;918062;-71
2021/05/24 13:43:49;;;;;;;3.13;1.23;;;;;;;;;;772389;180;919250;-71
2021/05/24 13:46:15;;;;;;;2.47;1.30;;;;;;;;;;777022;178;919831;-71
2021/05/24 13:48:42;;;;;;;4.63;1.33;;;;;;;;;;773933;180;919196;-71
2021/05/24 13:51:08;;;;;;;2.10;1.20;;;;;;;;;;773355;177;926162;-72
2021/05/24 13:53:36;;;;;;;1.67;0.90;;;;;;;;;;776189;179;920164;-72
2021/05/24 13:56:00;;;;;;;2.03;1.20;;;;;;;;;;766330;180;926253;-70
2021/05/24 13:58:25;;;;;;;4.43;1.27;;;;;;;;;;762092;180;916764;-75
2021/05/24 14:00:51;;;;;;;5.30;1.40;;;;;;;;;;778612;181;917615;-72
2021/05/24 14:03:17;;;;;;;2.83;1.10;;;;;;;;;;776575;178;915896;-72
2021/05/24 14:05:43;;;;;;;3.20;1.20;;;;;;;;;;776357;179;916838;-72
2021/05/24 14:08:09;;;;;;;3.75;1.50;;;;;;;;;;775813;178;921288;-73
2021/05/24 14:10:35;;;;;;;3.20;1.10;;;;;;;;;;768195;181;627120;-72
2021/05/24 14:13:01;;;;;;;3.07;1.10;;;;;;;;;;778360;179;617249;-71
2021/05/24 14:15:27;;;;;;;2.97;1.30;;;;;;;;;;779038;180;642105;-73
2021/05/24 14:17:53;;;;;;;2.83;1.20;;;;;;;;;;784446;180;630818;-73
2021/05/24 14:20:18;;;;;;;3.50;1.50;;;;;;;;;;775689;177;922818;-71
2021/05/24 14:22:44;;;;;;;3.40;1.77;;;;;;;;;;773897;177;918063;-72
2021/05/24 14:25:10;;;;;;;3.37;1.30;;;;;;;;;;776637;177;873036;-72